メインページ
METAR-TAF:

METAR-TAF

空港 :

リスボン, ポルトガル

ウンベルト・デルガード空港

緯度: 38-46N, 経度: 009-08W, 海抜: 114m

現時点の気象観測

当レポートは36分前の04:30(UTC)に作成
北西の風 9kt
気温 17°C
湿度 94%
気圧 1024 hPa
視程10km以上
高度600ftの雲は散在している
高度4000ftの千切れ雲あり

METAR: LPPT 210430Z 32009KT 9999 SCT006 BKN040 17/16 Q1024

時間: 06:06 (05:06 UTC)

予報

当レポートは6時間6分前の23:00(UTC)に作成
予報は21日の 00時(UTC)から 22日の 06時(UTC)まで有効
西の風 8kt
視程10km以上
高度800ftの雲は散在している
高度2000ftの千切れ雲あり
確率 30% :
21日の 00時(UTC)から 21日の 04時(UTC)まで一時的に
視程: 5000m
高度400ftの雲は散在している
高度1000ftの千切れ雲あり
小雨, 靄
21日の 04時(UTC)から 21日の 07時(UTC)まで徐々に
の風 10kt
高度1500ftの雲は散在している
高度3000ftの千切れ雲あり
21日の 07時(UTC)から 21日の 09時(UTC)まで徐々に
高度4000ftの雲はほとんどない

TAF: LPPT 202300Z 2100/2206 27008KT 9999 SCT008 BKN020 PROB30 TEMPO 2100/2104 5000 -RA BR SCT004 BKN010 BECMG 2104/2107 36010KT SCT015 BKN030 BECMG 2107/2109 FEW040

4,000以上の空港の気象観測と天気予報(METAR報とTAF報)

利用可能な観測所は地図上に黄色い丸と赤い丸で示す。

丸の上にカーソルを重ねると観測所名を参照できる。

次にクリックすると気象観測と天気予報を参照できる。

マップの切り替え:黒色「×」印の緑ボタンをクリックして拡大、「-」印の緑ボタンをクリックして縮小、緑色の三角印をクリックして隣りの地図に切り替え


METAR-TAF: